Mauriceville, Texas
Current Conditions -  °F | °C
As of 9:35 PM on Saturday 24 Jan 2015 (Local Time) from KORG Reporting Station
Clear Clear  
Wind Chill:   Ceiling: Unl
Heat Index:   Visibility: 10mi
Dew Point:   Wind: 7mph
Humidity: 92%   Direction: 210°SSW
Pressure: 30.1"   Gusts: NA
Location:  30.2°N, 93.87°W
Report Text: KORG 250335Z AUTO 21006KT 10SM CLR 09/07 A3010 RMK AO2 T00860073
Loading
Personal Weather Stations






























Interactive Weather Map New forecast layout! Learn more

10-Day Weather Forecast

Advertisements
Track Severe Weather on mobile